sensor_id;sensor_type;location;lat;lon;timestamp;pressure;altitude;pressure_sealevel;temperature;humidity
8758;BME280;4415;42.152;24.744;2023-06-14T00:00:07;99160.69;;;21.05;nan
8758;BME280;4415;42.152;24.744;2023-06-14T00:02:32;99162.97;;;20.99;nan
8758;BME280;4415;42.152;24.744;2023-06-14T00:04:58;99149.84;;;21.12;nan
8758;BME280;4415;42.152;24.744;2023-06-14T00:07:37;99163.38;;;21.24;nan
8758;BME280;4415;42.152;24.744;2023-06-14T00:10:03;99163.22;;;21.13;nan
8758;BME280;4415;42.152;24.744;2023-06-14T00:12:30;99156.19;;;21.16;nan
8758;BME280;4415;42.152;24.744;2023-06-14T00:14:56;99149.00;;;21.08;nan
8758;BME280;4415;42.152;24.744;2023-06-14T00:19:48;99152.38;;;21.24;nan
8758;BME280;4415;42.152;24.744;2023-06-14T00:22:13;99152.28;;;21.17;nan
8758;BME280;4415;42.152;24.744;2023-06-14T00:24:38;99161.44;;;21.25;nan
8758;BME280;4415;42.152;24.744;2023-06-14T00:27:04;99159.47;;;21.25;nan
8758;BME280;4415;42.152;24.744;2023-06-14T00:29:30;99161.00;;;21.23;nan
8758;BME280;4415;42.152;24.744;2023-06-14T00:31:56;99144.34;;;21.12;nan
8758;BME280;4415;42.152;24.744;2023-06-14T00:34:21;99147.94;;;21.16;nan
8758;BME280;4415;42.152;24.744;2023-06-14T00:36:47;99146.69;;;21.10;nan
8758;BME280;4415;42.152;24.744;2023-06-14T00:41:37;99139.22;;;20.88;nan
8758;BME280;4415;42.152;24.744;2023-06-14T00:44:03;99134.69;;;20.53;nan
8758;BME280;4415;42.152;24.744;2023-06-14T00:46:29;99135.50;;;20.54;nan
8758;BME280;4415;42.152;24.744;2023-06-14T00:48:56;99142.63;;;20.59;nan
8758;BME280;4415;42.152;24.744;2023-06-14T00:51:22;99130.84;;;20.58;nan
8758;BME280;4415;42.152;24.744;2023-06-14T00:53:47;99137.06;;;20.55;nan
8758;BME280;4415;42.152;24.744;2023-06-14T00:56:14;99141.03;;;20.58;nan
8758;BME280;4415;42.152;24.744;2023-06-14T00:58:40;99125.97;;;20.48;nan
8758;BME280;4415;42.152;24.744;2023-06-14T01:01:06;99131.47;;;20.48;nan
8758;BME280;4415;42.152;24.744;2023-06-14T01:03:31;99072.84;;;20.37;nan
8758;BME280;4415;42.152;24.744;2023-06-14T01:09:12;99109.72;;;20.20;nan
8758;BME280;4415;42.152;24.744;2023-06-14T01:12:01;99129.66;;;20.36;nan
8758;BME280;4415;42.152;24.744;2023-06-14T01:16:57;99120.28;;;20.37;nan
8758;BME280;4415;42.152;24.744;2023-06-14T01:19:25;99122.16;;;20.14;nan
8758;BME280;4415;42.152;24.744;2023-06-14T01:21:55;99124.47;;;20.12;nan
8758;BME280;4415;42.152;24.744;2023-06-14T01:24:20;99033.25;;;19.96;nan
8758;BME280;4415;42.152;24.744;2023-06-14T01:26:51;99118.13;;;20.08;nan
8758;BME280;4415;42.152;24.744;2023-06-14T01:29:21;99129.38;;;20.22;nan
8758;BME280;4415;42.152;24.744;2023-06-14T01:34:13;99134.00;;;20.18;nan
8758;BME280;4415;42.152;24.744;2023-06-14T01:36:40;99129.22;;;20.15;nan
8758;BME280;4415;42.152;24.744;2023-06-14T01:39:07;99061.25;;;20.24;nan
8758;BME280;4415;42.152;24.744;2023-06-14T01:43:59;99043.69;;;20.10;nan
8758;BME280;4415;42.152;24.744;2023-06-14T01:46:26;99094.88;;;19.83;nan
8758;BME280;4415;42.152;24.744;2023-06-14T01:48:51;99098.34;;;19.99;nan
8758;BME280;4415;42.152;24.744;2023-06-14T01:51:17;99115.22;;;20.20;nan
8758;BME280;4415;42.152;24.744;2023-06-14T01:53:42;99124.53;;;20.16;nan
8758;BME280;4415;42.152;24.744;2023-06-14T01:56:07;99124.53;;;20.16;nan
8758;BME280;4415;42.152;24.744;2023-06-14T01:58:33;99058.94;;;20.26;nan
8758;BME280;4415;42.152;24.744;2023-06-14T02:00:58;99109.00;;;20.23;nan
8758;BME280;4415;42.152;24.744;2023-06-14T02:03:25;99126.63;;;20.22;nan
8758;BME280;4415;42.152;24.744;2023-06-14T02:05:51;99110.41;;;20.14;nan
8758;BME280;4415;42.152;24.744;2023-06-14T02:08:17;99127.78;;;20.21;nan
8758;BME280;4415;42.152;24.744;2023-06-14T02:13:08;99126.13;;;20.17;nan
8758;BME280;4415;42.152;24.744;2023-06-14T02:15:33;99127.94;;;20.28;nan
8758;BME280;4415;42.152;24.744;2023-06-14T02:18:00;99124.63;;;20.19;nan
8758;BME280;4415;42.152;24.744;2023-06-14T02:20:26;99116.97;;;20.28;nan
8758;BME280;4415;42.152;24.744;2023-06-14T02:22:51;99130.53;;;20.40;nan
8758;BME280;4415;42.152;24.744;2023-06-14T02:25:17;99122.00;;;20.45;nan
8758;BME280;4415;42.152;24.744;2023-06-14T02:30:08;99126.56;;;20.38;nan
8758;BME280;4415;42.152;24.744;2023-06-14T02:32:33;99136.75;;;20.37;nan
8758;BME280;4415;42.152;24.744;2023-06-14T02:35:02;99141.34;;;20.33;nan
8758;BME280;4415;42.152;24.744;2023-06-14T02:37:27;99124.19;;;20.36;nan
8758;BME280;4415;42.152;24.744;2023-06-14T02:39:53;99124.13;;;20.33;nan
8758;BME280;4415;42.152;24.744;2023-06-14T02:44:44;99140.78;;;20.43;nan
8758;BME280;4415;42.152;24.744;2023-06-14T02:47:10;99118.63;;;20.33;nan
8758;BME280;4415;42.152;24.744;2023-06-14T02:49:35;99142.97;;;20.34;nan
8758;BME280;4415;42.152;24.744;2023-06-14T02:52:01;99126.38;;;20.27;nan
8758;BME280;4415;42.152;24.744;2023-06-14T02:59:18;99142.25;;;20.37;nan
8758;BME280;4415;42.152;24.744;2023-06-14T03:01:44;99128.75;;;20.29;nan
8758;BME280;4415;42.152;24.744;2023-06-14T03:04:10;99155.66;;;20.42;nan
8758;BME280;4415;42.152;24.744;2023-06-14T03:06:36;99118.97;;;20.12;nan
8758;BME280;4415;42.152;24.744;2023-06-14T03:09:02;99161.94;;;20.43;nan
8758;BME280;4415;42.152;24.744;2023-06-14T03:11:31;99143.75;;;20.35;nan
8758;BME280;4415;42.152;24.744;2023-06-14T03:13:57;99150.03;;;20.35;nan
8758;BME280;4415;42.152;24.744;2023-06-14T03:21:16;99163.88;;;20.23;nan
8758;BME280;4415;42.152;24.744;2023-06-14T03:23:42;99162.94;;;20.16;nan
8758;BME280;4415;42.152;24.744;2023-06-14T03:26:08;99167.34;;;20.39;nan
8758;BME280;4415;42.152;24.744;2023-06-14T03:28:33;99150.88;;;20.39;nan
8758;BME280;4415;42.152;24.744;2023-06-14T03:33:25;99168.44;;;20.54;nan
8758;BME280;4415;42.152;24.744;2023-06-14T03:35:51;99179.00;;;20.75;nan
8758;BME280;4415;42.152;24.744;2023-06-14T03:40:42;99185.59;;;20.93;nan
8758;BME280;4415;42.152;24.744;2023-06-14T03:43:07;99186.13;;;20.79;nan
8758;BME280;4415;42.152;24.744;2023-06-14T03:47:58;99195.59;;;20.82;nan
8758;BME280;4415;42.152;24.744;2023-06-14T03:50:25;99198.53;;;20.70;nan
8758;BME280;4415;42.152;24.744;2023-06-14T03:57:42;99204.41;;;20.91;nan
8758;BME280;4415;42.152;24.744;2023-06-14T04:00:09;99210.63;;;20.88;nan
8758;BME280;4415;42.152;24.744;2023-06-14T04:02:35;99149.41;;;20.87;nan
8758;BME280;4415;42.152;24.744;2023-06-14T04:07:27;99202.13;;;20.96;nan
8758;BME280;4415;42.152;24.744;2023-06-14T04:09:54;99204.78;;;21.12;nan
8758;BME280;4415;42.152;24.744;2023-06-14T04:12:19;99207.34;;;21.24;nan
8758;BME280;4415;42.152;24.744;2023-06-14T04:14:45;99201.25;;;21.34;nan
8758;BME280;4415;42.152;24.744;2023-06-14T04:17:10;99208.75;;;21.14;nan
8758;BME280;4415;42.152;24.744;2023-06-14T04:19:36;99222.59;;;20.99;nan
8758;BME280;4415;42.152;24.744;2023-06-14T04:22:01;99219.16;;;20.83;nan
8758;BME280;4415;42.152;24.744;2023-06-14T04:24:28;99217.34;;;20.71;nan
8758;BME280;4415;42.152;24.744;2023-06-14T04:26:58;99212.66;;;20.72;nan
8758;BME280;4415;42.152;24.744;2023-06-14T04:29:24;99192.63;;;20.90;nan
8758;BME280;4415;42.152;24.744;2023-06-14T04:31:53;99209.00;;;21.81;nan
8758;BME280;4415;42.152;24.744;2023-06-14T04:34:19;99228.69;;;23.13;nan
8758;BME280;4415;42.152;24.744;2023-06-14T04:36:47;99205.97;;;23.23;nan
8758;BME280;4415;42.152;24.744;2023-06-14T04:39:21;99219.00;;;22.22;nan
8758;BME280;4415;42.152;24.744;2023-06-14T04:41:47;99214.13;;;21.56;nan
8758;BME280;4415;42.152;24.744;2023-06-14T04:44:16;99233.53;;;21.41;nan
8758;BME280;4415;42.152;24.744;2023-06-14T04:46:43;99218.25;;;21.69;nan
8758;BME280;4415;42.152;24.744;2023-06-14T04:49:15;99229.59;;;21.91;nan
8758;BME280;4415;42.152;24.744;2023-06-14T04:51:42;99239.03;;;23.23;nan
8758;BME280;4415;42.152;24.744;2023-06-14T04:54:09;99229.56;;;24.29;nan
8758;BME280;4415;42.152;24.744;2023-06-14T04:56:41;99236.13;;;25.14;nan
8758;BME280;4415;42.152;24.744;2023-06-14T05:01:36;99247.75;;;24.44;nan
8758;BME280;4415;42.152;24.744;2023-06-14T05:04:03;99246.31;;;23.45;nan
8758;BME280;4415;42.152;24.744;2023-06-14T05:06:28;99239.03;;;23.26;nan
8758;BME280;4415;42.152;24.744;2023-06-14T05:11:20;99242.25;;;23.32;nan
8758;BME280;4415;42.152;24.744;2023-06-14T05:13:45;99240.28;;;23.32;nan
8758;BME280;4415;42.152;24.744;2023-06-14T05:16:12;99234.91;;;23.03;nan
8758;BME280;4415;42.152;24.744;2023-06-14T05:18:37;99234.72;;;23.29;nan
8758;BME280;4415;42.152;24.744;2023-06-14T05:21:03;99253.38;;;23.39;nan
8758;BME280;4415;42.152;24.744;2023-06-14T05:23:32;99262.50;;;24.04;nan
8758;BME280;4415;42.152;24.744;2023-06-14T05:25:57;99262.34;;;23.80;nan
8758;BME280;4415;42.152;24.744;2023-06-14T05:28:23;99265.38;;;23.64;nan
8758;BME280;4415;42.152;24.744;2023-06-14T05:30:49;99266.97;;;23.65;nan
8758;BME280;4415;42.152;24.744;2023-06-14T05:33:15;99281.38;;;23.95;nan
8758;BME280;4415;42.152;24.744;2023-06-14T05:35:40;99270.50;;;24.13;nan
8758;BME280;4415;42.152;24.744;2023-06-14T05:38:06;99275.34;;;24.41;nan
8758;BME280;4415;42.152;24.744;2023-06-14T05:40:33;99259.59;;;24.45;nan
8758;BME280;4415;42.152;24.744;2023-06-14T05:42:58;99284.13;;;24.60;nan
8758;BME280;4415;42.152;24.744;2023-06-14T05:45:24;99279.41;;;24.68;nan
8758;BME280;4415;42.152;24.744;2023-06-14T05:47:49;99284.19;;;24.78;nan
8758;BME280;4415;42.152;24.744;2023-06-14T05:50:15;99286.59;;;24.83;nan
8758;BME280;4415;42.152;24.744;2023-06-14T05:52:41;99283.47;;;24.95;nan
8758;BME280;4415;42.152;24.744;2023-06-14T05:55:06;99300.94;;;25.35;nan
8758;BME280;4415;42.152;24.744;2023-06-14T05:57:32;99295.38;;;25.24;nan
8758;BME280;4415;42.152;24.744;2023-06-14T06:02:24;99293.75;;;24.95;nan
8758;BME280;4415;42.152;24.744;2023-06-14T06:09:40;99294.66;;;25.73;nan
8758;BME280;4415;42.152;24.744;2023-06-14T06:12:06;99286.72;;;26.03;nan
8758;BME280;4415;42.152;24.744;2023-06-14T06:14:32;99298.38;;;26.85;nan
8758;BME280;4415;42.152;24.744;2023-06-14T06:16:58;99292.72;;;27.06;nan
8758;BME280;4415;42.152;24.744;2023-06-14T06:19:23;99305.25;;;27.28;nan
8758;BME280;4415;42.152;24.744;2023-06-14T06:21:49;99284.59;;;27.36;nan
8758;BME280;4415;42.152;24.744;2023-06-14T06:24:15;99309.69;;;27.74;nan
8758;BME280;4415;42.152;24.744;2023-06-14T06:26:40;99302.00;;;28.33;nan
8758;BME280;4415;42.152;24.744;2023-06-14T06:29:06;99307.06;;;28.78;nan
8758;BME280;4415;42.152;24.744;2023-06-14T06:31:31;99304.75;;;30.27;nan
8758;BME280;4415;42.152;24.744;2023-06-14T06:33:56;99294.50;;;31.02;nan
8758;BME280;4415;42.152;24.744;2023-06-14T06:36:22;99312.84;;;31.36;nan
8758;BME280;4415;42.152;24.744;2023-06-14T06:38:48;99292.16;;;32.59;nan
8758;BME280;4415;42.152;24.744;2023-06-14T06:41:13;99285.91;;;34.06;nan
8758;BME280;4415;42.152;24.744;2023-06-14T06:43:39;99304.09;;;34.14;nan
8758;BME280;4415;42.152;24.744;2023-06-14T06:46:04;99305.22;;;33.03;nan
8758;BME280;4415;42.152;24.744;2023-06-14T06:48:30;99311.13;;;33.21;nan
8758;BME280;4415;42.152;24.744;2023-06-14T06:50:55;99283.31;;;33.14;nan
8758;BME280;4415;42.152;24.744;2023-06-14T06:53:21;99395.00;;;32.38;nan
8758;BME280;4415;42.152;24.744;2023-06-14T06:55:47;99305.28;;;32.74;nan
8758;BME280;4415;42.152;24.744;2023-06-14T06:58:13;99303.81;;;33.49;nan
8758;BME280;4415;42.152;24.744;2023-06-14T07:00:38;99316.16;;;32.85;nan
8758;BME280;4415;42.152;24.744;2023-06-14T07:03:05;99306.50;;;33.15;nan
8758;BME280;4415;42.152;24.744;2023-06-14T07:05:30;99310.88;;;32.46;nan
8758;BME280;4415;42.152;24.744;2023-06-14T07:07:56;99315.84;;;31.45;nan
8758;BME280;4415;42.152;24.744;2023-06-14T07:10:21;99320.03;;;31.37;nan
8758;BME280;4415;42.152;24.744;2023-06-14T07:12:47;99306.00;;;32.05;nan
8758;BME280;4415;42.152;24.744;2023-06-14T07:15:13;99311.91;;;30.28;nan
8758;BME280;4415;42.152;24.744;2023-06-14T07:17:38;99300.53;;;31.53;nan
8758;BME280;4415;42.152;24.744;2023-06-14T07:20:04;99292.50;;;30.44;nan
8758;BME280;4415;42.152;24.744;2023-06-14T07:22:40;99310.22;;;31.12;nan
8758;BME280;4415;42.152;24.744;2023-06-14T07:25:08;99286.78;;;31.26;nan
8758;BME280;4415;42.152;24.744;2023-06-14T07:27:34;99303.06;;;30.33;nan
8758;BME280;4415;42.152;24.744;2023-06-14T07:29:59;99294.25;;;31.13;nan
8758;BME280;4415;42.152;24.744;2023-06-14T07:32:25;99301.44;;;30.75;nan
8758;BME280;4415;42.152;24.744;2023-06-14T07:34:50;99306.03;;;31.20;nan
8758;BME280;4415;42.152;24.744;2023-06-14T07:37:15;99290.25;;;30.35;nan
8758;BME280;4415;42.152;24.744;2023-06-14T07:39:41;99302.47;;;30.22;nan
8758;BME280;4415;42.152;24.744;2023-06-14T07:42:06;99286.75;;;30.90;nan
8758;BME280;4415;42.152;24.744;2023-06-14T07:44:32;99299.94;;;30.70;nan
8758;BME280;4415;42.152;24.744;2023-06-14T07:46:57;99301.16;;;31.25;nan
8758;BME280;4415;42.152;24.744;2023-06-14T07:49:26;99273.97;;;30.93;nan
8758;BME280;4415;42.152;24.744;2023-06-14T07:51:51;99302.66;;;30.93;nan
8758;BME280;4415;42.152;24.744;2023-06-14T07:54:18;99298.28;;;30.73;nan
8758;BME280;4415;42.152;24.744;2023-06-14T07:56:43;99300.84;;;29.78;nan
8758;BME280;4415;42.152;24.744;2023-06-14T07:59:09;99291.69;;;30.83;nan
8758;BME280;4415;42.152;24.744;2023-06-14T08:01:36;99292.31;;;30.12;nan
8758;BME280;4415;42.152;24.744;2023-06-14T08:04:01;99298.16;;;30.40;nan
8758;BME280;4415;42.152;24.744;2023-06-14T08:08:52;99303.25;;;29.26;nan
8758;BME280;4415;42.152;24.744;2023-06-14T08:11:17;99306.25;;;29.88;nan
8758;BME280;4415;42.152;24.744;2023-06-14T08:13:43;99306.81;;;29.53;nan
8758;BME280;4415;42.152;24.744;2023-06-14T08:16:08;99292.34;;;29.08;nan
8758;BME280;4415;42.152;24.744;2023-06-14T08:18:34;99289.34;;;28.96;nan
8758;BME280;4415;42.152;24.744;2023-06-14T08:21:00;99305.97;;;29.56;nan
8758;BME280;4415;42.152;24.744;2023-06-14T08:23:25;99389.69;;;29.95;nan
8758;BME280;4415;42.152;24.744;2023-06-14T08:25:50;99321.25;;;30.80;nan
8758;BME280;4415;42.152;24.744;2023-06-14T08:28:16;99313.81;;;31.29;nan
8758;BME280;4415;42.152;24.744;2023-06-14T08:30:42;99317.03;;;31.63;nan
8758;BME280;4415;42.152;24.744;2023-06-14T08:33:08;99319.91;;;32.37;nan
8758;BME280;4415;42.152;24.744;2023-06-14T08:35:33;99329.31;;;32.14;nan
8758;BME280;4415;42.152;24.744;2023-06-14T08:38:02;99289.59;;;33.18;nan
8758;BME280;4415;42.152;24.744;2023-06-14T08:40:29;99336.59;;;32.41;nan
8758;BME280;4415;42.152;24.744;2023-06-14T08:42:55;99326.13;;;33.52;nan
8758;BME280;4415;42.152;24.744;2023-06-14T08:45:23;99308.63;;;33.74;nan
8758;BME280;4415;42.152;24.744;2023-06-14T08:47:50;99311.00;;;34.22;nan
8758;BME280;4415;42.152;24.744;2023-06-14T08:50:23;99313.69;;;33.41;nan
8758;BME280;4415;42.152;24.744;2023-06-14T08:52:56;99326.25;;;33.24;nan
8758;BME280;4415;42.152;24.744;2023-06-14T08:55:23;99325.56;;;33.70;nan
8758;BME280;4415;42.152;24.744;2023-06-14T08:57:54;99319.03;;;33.98;nan
8758;BME280;4415;42.152;24.744;2023-06-14T09:00:21;99325.13;;;33.59;nan
8758;BME280;4415;42.152;24.744;2023-06-14T09:02:47;99322.75;;;33.32;nan
8758;BME280;4415;42.152;24.744;2023-06-14T09:05:13;99321.75;;;33.26;nan
8758;BME280;4415;42.152;24.744;2023-06-14T09:07:40;99325.88;;;33.85;nan
8758;BME280;4415;42.152;24.744;2023-06-14T09:10:12;99324.53;;;33.51;nan
8758;BME280;4415;42.152;24.744;2023-06-14T09:12:38;99313.66;;;32.62;nan
8758;BME280;4415;42.152;24.744;2023-06-14T09:15:05;99305.50;;;32.67;nan
8758;BME280;4415;42.152;24.744;2023-06-14T09:17:38;99313.56;;;31.40;nan
8758;BME280;4415;42.152;24.744;2023-06-14T09:20:05;99322.94;;;30.74;nan
8758;BME280;4415;42.152;24.744;2023-06-14T09:22:32;99316.38;;;30.84;nan
8758;BME280;4415;42.152;24.744;2023-06-14T09:24:58;99315.59;;;30.84;nan
8758;BME280;4415;42.152;24.744;2023-06-14T09:27:28;99309.53;;;31.41;nan
8758;BME280;4415;42.152;24.744;2023-06-14T09:29:54;99304.75;;;31.41;nan
8758;BME280;4415;42.152;24.744;2023-06-14T09:32:22;99308.38;;;31.58;nan
8758;BME280;4415;42.152;24.744;2023-06-14T09:34:49;99291.81;;;31.15;nan
8758;BME280;4415;42.152;24.744;2023-06-14T09:37:31;99327.59;;;31.56;nan
8758;BME280;4415;42.152;24.744;2023-06-14T09:39:57;99279.72;;;31.54;nan
8758;BME280;4415;42.152;24.744;2023-06-14T09:42:23;99297.34;;;30.40;nan
8758;BME280;4415;42.152;24.744;2023-06-14T09:44:52;99295.88;;;30.32;nan
8758;BME280;4415;42.152;24.744;2023-06-14T09:47:18;99272.03;;;30.90;nan
8758;BME280;4415;42.152;24.744;2023-06-14T09:49:43;99298.47;;;31.37;nan
8758;BME280;4415;42.152;24.744;2023-06-14T09:52:18;99303.34;;;31.33;nan
8758;BME280;4415;42.152;24.744;2023-06-14T09:54:45;99285.66;;;31.40;nan
8758;BME280;4415;42.152;24.744;2023-06-14T09:57:13;99300.69;;;31.46;nan
8758;BME280;4415;42.152;24.744;2023-06-14T09:59:43;99288.47;;;31.56;nan
8758;BME280;4415;42.152;24.744;2023-06-14T10:02:34;99317.63;;;31.55;nan
8758;BME280;4415;42.152;24.744;2023-06-14T10:07:32;99280.41;;;30.90;nan
8758;BME280;4415;42.152;24.744;2023-06-14T10:10:00;99284.91;;;29.78;nan
8758;BME280;4415;42.152;24.744;2023-06-14T10:12:26;99286.72;;;30.12;nan
8758;BME280;4415;42.152;24.744;2023-06-14T10:14:53;99280.75;;;30.33;nan
8758;BME280;4415;42.152;24.744;2023-06-14T10:17:28;99278.22;;;30.42;nan
8758;BME280;4415;42.152;24.744;2023-06-14T10:20:10;99271.75;;;30.84;nan
8758;BME280;4415;42.152;24.744;2023-06-14T10:23:00;99279.75;;;30.82;nan
8758;BME280;4415;42.152;24.744;2023-06-14T10:25:31;99273.00;;;29.28;nan
8758;BME280;4415;42.152;24.744;2023-06-14T10:28:14;99269.91;;;29.72;nan
8758;BME280;4415;42.152;24.744;2023-06-14T10:31:09;99273.19;;;29.67;nan
8758;BME280;4415;42.152;24.744;2023-06-14T10:38:57;99267.78;;;31.86;nan
8758;BME280;4415;42.152;24.744;2023-06-14T10:41:23;99273.34;;;31.21;nan
8758;BME280;4415;42.152;24.744;2023-06-14T10:43:50;99266.50;;;29.38;nan
8758;BME280;4415;42.152;24.744;2023-06-14T10:46:19;99274.75;;;30.93;nan
8758;BME280;4415;42.152;24.744;2023-06-14T10:48:48;99248.63;;;30.05;nan
8758;BME280;4415;42.152;24.744;2023-06-14T10:51:20;99260.91;;;30.70;nan
8758;BME280;4415;42.152;24.744;2023-06-14T10:53:47;99264.38;;;31.62;nan
8758;BME280;4415;42.152;24.744;2023-06-14T10:56:46;99250.38;;;31.78;nan
8758;BME280;4415;42.152;24.744;2023-06-14T10:59:12;99268.38;;;31.29;nan
8758;BME280;4415;42.152;24.744;2023-06-14T11:04:52;99238.41;;;30.41;nan
8758;BME280;4415;42.152;24.744;2023-06-14T11:07:33;99235.13;;;31.18;nan
8758;BME280;4415;42.152;24.744;2023-06-14T11:10:53;99259.84;;;29.55;nan
8758;BME280;4415;42.152;24.744;2023-06-14T11:13:00;99250.91;;;29.67;nan
8758;BME280;4415;42.152;24.744;2023-06-14T11:15:33;99253.56;;;28.98;nan
8758;BME280;4415;42.152;24.744;2023-06-14T11:18:04;99254.63;;;29.34;nan
8758;BME280;4415;42.152;24.744;2023-06-14T11:20:32;99246.03;;;30.18;nan
8758;BME280;4415;42.152;24.744;2023-06-14T11:22:58;99232.59;;;30.52;nan
8758;BME280;4415;42.152;24.744;2023-06-14T11:27:50;99240.22;;;30.68;nan
8758;BME280;4415;42.152;24.744;2023-06-14T11:30:16;99233.34;;;30.92;nan
8758;BME280;4415;42.152;24.744;2023-06-14T11:32:42;99226.28;;;30.68;nan
8758;BME280;4415;42.152;24.744;2023-06-14T11:35:08;99234.16;;;30.53;nan
8758;BME280;4415;42.152;24.744;2023-06-14T11:37:36;99227.00;;;29.70;nan
8758;BME280;4415;42.152;24.744;2023-06-14T11:40:03;99226.50;;;29.98;nan
8758;BME280;4415;42.152;24.744;2023-06-14T11:42:35;99242.91;;;29.69;nan
8758;BME280;4415;42.152;24.744;2023-06-14T11:45:01;99212.47;;;29.35;nan
8758;BME280;4415;42.152;24.744;2023-06-14T11:47:35;99208.53;;;28.79;nan
8758;BME280;4415;42.152;24.744;2023-06-14T11:50:05;99208.91;;;28.81;nan
8758;BME280;4415;42.152;24.744;2023-06-14T11:52:32;99206.47;;;28.53;nan
8758;BME280;4415;42.152;24.744;2023-06-14T11:54:58;99212.94;;;29.54;nan
8758;BME280;4415;42.152;24.744;2023-06-14T11:57:24;99205.75;;;30.58;nan
8758;BME280;4415;42.152;24.744;2023-06-14T11:59:51;99216.50;;;29.54;nan
8758;BME280;4415;42.152;24.744;2023-06-14T12:02:18;99202.94;;;30.22;nan
8758;BME280;4415;42.152;24.744;2023-06-14T12:04:46;99187.66;;;30.66;nan
8758;BME280;4415;42.152;24.744;2023-06-14T12:07:13;99198.50;;;31.16;nan
8758;BME280;4415;42.152;24.744;2023-06-14T12:10:03;99216.03;;;29.09;nan
8758;BME280;4415;42.152;24.744;2023-06-14T12:12:35;99202.34;;;29.22;nan
8758;BME280;4415;42.152;24.744;2023-06-14T12:15:03;99209.66;;;28.55;nan
8758;BME280;4415;42.152;24.744;2023-06-14T12:17:32;99185.09;;;29.04;nan
8758;BME280;4415;42.152;24.744;2023-06-14T12:19:58;99207.69;;;28.82;nan
8758;BME280;4415;42.152;24.744;2023-06-14T12:22:23;99191.50;;;28.47;nan
8758;BME280;4415;42.152;24.744;2023-06-14T12:24:49;99179.88;;;28.82;nan
8758;BME280;4415;42.152;24.744;2023-06-14T12:27:15;99158.03;;;28.54;nan
8758;BME280;4415;42.152;24.744;2023-06-14T12:32:10;99198.31;;;28.09;nan
8758;BME280;4415;42.152;24.744;2023-06-14T12:34:35;99174.50;;;27.26;nan
8758;BME280;4415;42.152;24.744;2023-06-14T12:37:01;99186.91;;;27.59;nan
8758;BME280;4415;42.152;24.744;2023-06-14T12:39:28;99175.72;;;27.66;nan
8758;BME280;4415;42.152;24.744;2023-06-14T12:41:55;99176.59;;;27.59;nan
8758;BME280;4415;42.152;24.744;2023-06-14T12:44:20;99176.88;;;28.09;nan
8758;BME280;4415;42.152;24.744;2023-06-14T12:46:46;99168.63;;;27.65;nan
8758;BME280;4415;42.152;24.744;2023-06-14T12:49:12;99175.34;;;28.01;nan
8758;BME280;4415;42.152;24.744;2023-06-14T12:51:38;99153.97;;;27.98;nan
8758;BME280;4415;42.152;24.744;2023-06-14T12:54:04;99163.13;;;28.29;nan
8758;BME280;4415;42.152;24.744;2023-06-14T12:56:30;99146.66;;;27.40;nan
8758;BME280;4415;42.152;24.744;2023-06-14T12:58:55;99144.72;;;27.75;nan
8758;BME280;4415;42.152;24.744;2023-06-14T13:01:21;99147.47;;;28.12;nan
8758;BME280;4415;42.152;24.744;2023-06-14T13:03:47;99140.03;;;28.36;nan
8758;BME280;4415;42.152;24.744;2023-06-14T13:06:12;99123.47;;;27.61;nan
8758;BME280;4415;42.152;24.744;2023-06-14T13:08:38;99133.84;;;27.53;nan
8758;BME280;4415;42.152;24.744;2023-06-14T13:11:03;99139.66;;;27.25;nan
8758;BME280;4415;42.152;24.744;2023-06-14T13:13:29;99143.31;;;27.59;nan
8758;BME280;4415;42.152;24.744;2023-06-14T13:15:54;99147.84;;;27.80;nan
8758;BME280;4415;42.152;24.744;2023-06-14T13:18:20;99157.56;;;27.61;nan
8758;BME280;4415;42.152;24.744;2023-06-14T13:20:46;99131.53;;;27.48;nan
8758;BME280;4415;42.152;24.744;2023-06-14T13:23:12;99138.16;;;27.92;nan
8758;BME280;4415;42.152;24.744;2023-06-14T13:25:38;99143.66;;;28.02;nan
8758;BME280;4415;42.152;24.744;2023-06-14T13:28:04;99135.84;;;27.87;nan
8758;BME280;4415;42.152;24.744;2023-06-14T13:32:56;99138.88;;;27.99;nan
8758;BME280;4415;42.152;24.744;2023-06-14T13:35:23;99121.59;;;27.85;nan
8758;BME280;4415;42.152;24.744;2023-06-14T13:37:48;99123.91;;;27.90;nan
8758;BME280;4415;42.152;24.744;2023-06-14T13:40:14;99137.06;;;27.48;nan
8758;BME280;4415;42.152;24.744;2023-06-14T13:42:39;99118.31;;;27.93;nan
8758;BME280;4415;42.152;24.744;2023-06-14T13:45:06;99120.19;;;27.70;nan
8758;BME280;4415;42.152;24.744;2023-06-14T13:47:32;99109.16;;;27.62;nan
8758;BME280;4415;42.152;24.744;2023-06-14T13:49:58;99114.78;;;27.55;nan
8758;BME280;4415;42.152;24.744;2023-06-14T13:52:24;99127.63;;;27.42;nan
8758;BME280;4415;42.152;24.744;2023-06-14T13:54:49;99111.50;;;27.67;nan
8758;BME280;4415;42.152;24.744;2023-06-14T13:57:17;99111.72;;;27.84;nan
8758;BME280;4415;42.152;24.744;2023-06-14T13:59:44;99109.53;;;27.24;nan
8758;BME280;4415;42.152;24.744;2023-06-14T14:02:10;99113.44;;;27.30;nan
8758;BME280;4415;42.152;24.744;2023-06-14T14:04:37;99123.56;;;27.50;nan
8758;BME280;4415;42.152;24.744;2023-06-14T14:07:07;99106.19;;;27.46;nan
8758;BME280;4415;42.152;24.744;2023-06-14T14:09:33;99114.00;;;27.55;nan
8758;BME280;4415;42.152;24.744;2023-06-14T14:12:00;99110.97;;;27.42;nan
8758;BME280;4415;42.152;24.744;2023-06-14T14:16:51;99109.25;;;27.55;nan
8758;BME280;4415;42.152;24.744;2023-06-14T14:19:17;99104.84;;;27.92;nan
8758;BME280;4415;42.152;24.744;2023-06-14T14:21:44;99097.75;;;27.87;nan
8758;BME280;4415;42.152;24.744;2023-06-14T14:24:09;99107.13;;;28.04;nan
8758;BME280;4415;42.152;24.744;2023-06-14T14:26:35;99124.56;;;28.01;nan
8758;BME280;4415;42.152;24.744;2023-06-14T14:29:00;99117.56;;;27.89;nan
8758;BME280;4415;42.152;24.744;2023-06-14T14:31:27;99120.69;;;27.95;nan
8758;BME280;4415;42.152;24.744;2023-06-14T14:33:53;99104.59;;;27.45;nan
8758;BME280;4415;42.152;24.744;2023-06-14T14:36:18;99115.69;;;27.45;nan
8758;BME280;4415;42.152;24.744;2023-06-14T14:38:44;99110.78;;;27.60;nan
8758;BME280;4415;42.152;24.744;2023-06-14T14:41:10;99118.72;;;27.58;nan
8758;BME280;4415;42.152;24.744;2023-06-14T14:43:35;99106.84;;;27.57;nan
8758;BME280;4415;42.152;24.744;2023-06-14T14:46:01;99100.03;;;27.25;nan
8758;BME280;4415;42.152;24.744;2023-06-14T14:48:26;99090.38;;;27.40;nan
8758;BME280;4415;42.152;24.744;2023-06-14T14:50:52;99069.09;;;27.26;nan
8758;BME280;4415;42.152;24.744;2023-06-14T14:53:17;99100.88;;;27.15;nan